Time;durP1;ratioP1;P1;durP2;ratioP2;P2;SDS_P1;SDS_P2;PMS_P1;PMS_P2;Temp;Humidity;BMP_temperature;BMP_pressure;BME280_temperature;BME280_humidity;BME280_pressure;Samples;Min_cycle;Max_cycle;Signal;HPM_P1;HPM_P2
2021/08/18 00:00:19;;;;;;;2.67;1.38;;;;;;;14.85;76.43;101590.63;5064633;28;20032;-85
2021/08/18 00:02:46;;;;;;;4.18;1.50;;;;;;;14.84;76.06;101589.03;5046965;28;20725;-85
2021/08/18 00:05:16;;;;;;;5.45;1.65;;;;;;;14.84;76.52;101579.84;5065421;28;20991;-86
2021/08/18 00:07:43;;;;;;;5.35;1.60;;;;;;;14.78;76.36;101582.06;5065151;28;20044;-85
2021/08/18 00:10:13;;;;;;;5.72;1.40;;;;;;;14.78;76.20;101581.25;5062708;28;20036;-86
2021/08/18 00:12:40;;;;;;;3.03;1.52;;;;;;;14.80;76.23;101576.94;5046694;28;20057;-84
2021/08/18 00:15:09;;;;;;;3.67;1.67;;;;;;;14.79;76.22;101574.50;5042488;28;20037;-85
2021/08/18 00:17:36;;;;;;;4.95;1.63;;;;;;;14.83;76.04;101570.66;5046000;28;20124;-84
2021/08/18 00:20:04;;;;;;;2.60;2.38;;;;;;;14.89;75.93;101577.63;5057496;28;20046;-85
2021/08/18 00:22:31;;;;;;;3.15;1.35;;;;;;;14.90;75.66;101576.47;5066317;28;20128;-83
2021/08/18 00:24:58;;;;;;;3.20;1.33;;;;;;;14.83;75.90;101562.28;5066113;28;20388;-84
2021/08/18 00:27:24;;;;;;;4.28;2.42;;;;;;;14.82;75.88;101562.66;5065142;28;20048;-84
2021/08/18 00:29:51;;;;;;;4.82;1.40;;;;;;;14.81;75.79;101561.84;5065339;28;20080;-83
2021/08/18 00:32:18;;;;;;;2.40;1.70;;;;;;;14.80;75.93;101554.63;5066024;28;20033;-83
2021/08/18 00:34:46;;;;;;;3.63;1.75;;;;;;;14.71;75.90;101562.34;5047854;28;20048;-84
2021/08/18 00:37:12;;;;;;;2.45;0.98;;;;;;;14.72;75.92;101558.38;5047782;28;20052;-84
2021/08/18 00:39:40;;;;;;;4.07;1.13;;;;;;;14.68;76.15;101551.91;5047933;28;20045;-84
2021/08/18 00:42:07;;;;;;;3.30;1.27;;;;;;;14.70;75.99;101555.13;5046331;28;20037;-84
2021/08/18 00:44:35;;;;;;;1.98;1.08;;;;;;;14.67;76.03;101555.84;5064966;28;20032;-83
2021/08/18 00:47:04;;;;;;;1.02;0.77;;;;;;;14.69;75.91;101563.88;5065814;28;20167;-83
2021/08/18 00:49:32;;;;;;;4.20;1.10;;;;;;;14.67;75.70;101560.63;5065121;28;20126;-84
2021/08/18 00:52:00;;;;;;;3.28;0.98;;;;;;;14.70;75.89;101560.72;5065675;28;20041;-84
2021/08/18 00:54:45;;;;;;;2.97;0.85;;;;;;;14.70;75.69;101557.09;5048016;28;20102;-86
2021/08/18 00:57:12;;;;;;;1.92;0.82;;;;;;;14.69;75.71;101564.69;5065220;28;20119;-84
2021/08/18 00:59:39;;;;;;;1.55;0.98;;;;;;;14.66;75.74;101559.00;5045299;28;20046;-84
2021/08/18 01:02:06;;;;;;;1.55;0.77;;;;;;;14.66;75.44;101565.38;5064356;28;20048;-84
2021/08/18 01:04:34;;;;;;;2.45;0.85;;;;;;;14.59;75.50;101552.03;5065620;28;20047;-85
2021/08/18 01:07:00;;;;;;;5.05;1.20;;;;;;;14.63;75.68;101555.75;5064169;28;20036;-84
2021/08/18 01:09:27;;;;;;;2.35;0.82;;;;;;;14.62;75.45;101556.09;5047636;28;20047;-84
2021/08/18 01:11:54;;;;;;;1.38;0.98;;;;;;;14.61;75.58;101551.69;5046543;28;20480;-84
2021/08/18 01:14:21;;;;;;;2.05;0.82;;;;;;;14.62;75.41;101542.97;5064396;28;20059;-83
2021/08/18 01:16:49;;;;;;;3.00;1.13;;;;;;;14.66;75.46;101545.06;5046289;28;20045;-84
2021/08/18 01:19:19;;;;;;;3.63;1.30;;;;;;;14.67;75.36;101539.13;5046280;28;20067;-84
2021/08/18 01:21:48;;;;;;;3.08;0.90;;;;;;;14.64;75.49;101545.41;5064456;28;20037;-85
2021/08/18 01:24:18;;;;;;;1.15;0.75;;;;;;;14.66;75.52;101537.50;5045521;28;20055;-85
2021/08/18 01:26:45;;;;;;;1.55;0.80;;;;;;;14.60;75.63;101527.78;5064688;28;20147;-84
2021/08/18 01:29:12;;;;;;;3.55;0.80;;;;;;;14.55;75.77;101536.38;5045629;28;20043;-84
2021/08/18 01:31:41;;;;;;;2.67;0.80;;;;;;;14.47;75.80;101540.13;5062543;28;20036;-84
2021/08/18 01:34:08;;;;;;;3.90;1.05;;;;;;;14.51;75.77;101524.31;5064707;28;20044;-85
2021/08/18 01:36:37;;;;;;;1.48;0.80;;;;;;;14.49;76.06;101532.22;5064819;28;20043;-85
2021/08/18 01:39:06;;;;;;;2.55;1.27;;;;;;;14.52;75.82;101525.94;5063813;28;20380;-84
2021/08/18 01:41:33;;;;;;;2.50;1.10;;;;;;;14.47;75.82;101520.63;5063251;28;20048;-84
2021/08/18 01:44:00;;;;;;;1.70;0.75;;;;;;;14.45;75.85;101518.19;5064114;28;20036;-85
2021/08/18 01:46:27;;;;;;;1.58;0.80;;;;;;;14.48;75.71;101522.25;5046313;28;20041;-83
2021/08/18 01:48:54;;;;;;;1.73;1.02;;;;;;;14.38;75.74;101514.34;5046236;28;20096;-84
2021/08/18 01:51:22;;;;;;;3.00;1.25;;;;;;;14.20;76.40;101511.00;5063806;28;20139;-83
2021/08/18 01:53:49;;;;;;;2.28;0.80;;;;;;;14.13;76.47;101510.81;5065034;28;20044;-85
2021/08/18 01:56:17;;;;;;;2.03;0.95;;;;;;;14.11;76.50;101501.19;5063965;28;20048;-84
2021/08/18 01:58:45;;;;;;;1.17;0.70;;;;;;;14.09;76.52;101506.25;5045705;28;20045;-84
2021/08/18 02:01:14;;;;;;;1.75;0.50;;;;;;;14.01;76.77;101494.91;5064031;28;20484;-84
2021/08/18 02:03:42;;;;;;;3.60;1.30;;;;;;;13.95;76.69;101504.66;5064528;28;20042;-84
2021/08/18 02:06:09;;;;;;;2.90;2.03;;;;;;;14.01;76.80;101494.91;5063416;28;20048;-85
2021/08/18 02:08:37;;;;;;;0.98;0.70;;;;;;;14.05;76.98;101506.16;5045505;28;20040;-85
2021/08/18 02:11:04;;;;;;;2.90;0.80;;;;;;;14.04;76.83;101498.97;5064142;28;20049;-85
2021/08/18 02:13:31;;;;;;;4.10;1.00;;;;;;;14.08;76.79;101496.31;5063661;28;20060;-85
2021/08/18 02:15:59;;;;;;;3.50;1.00;;;;;;;14.15;76.78;101504.88;5064231;28;21936;-86
2021/08/18 02:18:26;;;;;;;1.90;0.60;;;;;;;14.18;76.65;101493.84;5055872;28;20063;-85
2021/08/18 02:20:53;;;;;;;2.50;0.85;;;;;;;14.04;77.00;101491.44;5054769;28;20044;-85
2021/08/18 02:23:20;;;;;;;1.25;0.70;;;;;;;14.07;76.83;101497.44;5063528;28;20055;-84
2021/08/18 02:25:48;;;;;;;2.65;0.88;;;;;;;14.04;76.83;101477.50;5045944;28;20044;-84
2021/08/18 02:28:15;;;;;;;1.52;0.60;;;;;;;14.02;76.93;101488.19;5045595;28;20036;-85
2021/08/18 02:30:43;;;;;;;1.00;0.57;;;;;;;14.01;76.82;101478.22;5063102;28;20428;-85
2021/08/18 02:33:11;;;;;;;1.90;0.73;;;;;;;14.02;76.63;101479.03;5041483;28;20047;-85
2021/08/18 02:35:38;;;;;;;2.97;1.02;;;;;;;14.01;76.87;101472.63;5046344;28;20052;-85
2021/08/18 02:38:05;;;;;;;2.42;0.60;;;;;;;13.98;77.02;101475.31;5063660;28;20043;-84
2021/08/18 02:40:32;;;;;;;2.30;0.82;;;;;;;13.95;76.69;101462.91;5045884;28;20435;-84
2021/08/18 02:43:01;;;;;;;1.10;0.80;;;;;;;13.99;77.25;101457.44;5049812;28;20041;-84
2021/08/18 02:45:30;;;;;;;1.33;0.80;;;;;;;14.00;76.94;101473.78;5068070;28;20078;-84
2021/08/18 02:47:57;;;;;;;1.70;0.77;;;;;;;14.00;76.81;101465.44;5050420;28;20166;-83
2021/08/18 02:50:26;;;;;;;5.32;0.80;;;;;;;14.00;76.91;101465.44;5068005;28;20565;-84
2021/08/18 02:52:53;;;;;;;1.92;0.77;;;;;;;14.01;77.02;101472.63;5067923;28;20504;-83
2021/08/18 02:55:21;;;;;;;1.15;0.70;;;;;;;13.98;77.13;101459.41;5048133;28;20508;-84
2021/08/18 02:57:48;;;;;;;4.75;0.80;;;;;;;13.97;77.39;101460.59;5049993;28;20098;-84
2021/08/18 03:00:16;;;;;;;2.78;0.70;;;;;;;13.97;77.13;101448.66;5048888;28;20037;-84
2021/08/18 03:02:43;;;;;;;2.67;1.02;;;;;;;13.99;77.22;101452.69;5065856;28;20045;-84
2021/08/18 03:05:12;;;;;;;1.88;0.80;;;;;;;14.02;77.17;101452.00;5049589;28;20048;-84
2021/08/18 03:07:40;;;;;;;1.40;0.80;;;;;;;13.99;77.63;101449.91;5048955;28;20492;-83
2021/08/18 03:10:08;;;;;;;1.95;0.98;;;;;;;14.00;77.41;101447.94;5044342;28;20385;-86
2021/08/18 03:12:35;;;;;;;4.07;1.25;;;;;;;13.94;77.69;101450.16;5045497;28;20051;-83
2021/08/18 03:15:04;;;;;;;4.25;1.20;;;;;;;13.89;78.09;101450.41;5048537;28;20044;-83
2021/08/18 03:17:30;;;;;;;5.00;2.33;;;;;;;13.92;77.58;101435.78;5064977;28;20052;-84
2021/08/18 03:19:57;;;;;;;3.03;1.17;;;;;;;13.91;77.82;101434.16;5066439;28;20051;-84
2021/08/18 03:22:24;;;;;;;3.17;1.50;;;;;;;13.86;78.14;101437.19;5046895;28;20036;-85
2021/08/18 03:24:51;;;;;;;2.88;1.00;;;;;;;13.87;78.15;101433.22;5065875;28;20542;-84
2021/08/18 03:27:18;;;;;;;3.63;1.75;;;;;;;13.87;78.25;101426.88;5048205;28;20051;-83
2021/08/18 03:29:44;;;;;;;3.22;1.92;;;;;;;13.82;78.49;101425.09;5067301;28;20040;-84
2021/08/18 03:32:14;;;;;;;5.93;1.00;;;;;;;13.89;78.27;101424.53;5049248;28;20123;-84
2021/08/18 03:34:41;;;;;;;2.80;1.27;;;;;;;13.90;78.07;101426.94;5047049;28;20123;-83
2021/08/18 03:37:08;;;;;;;5.00;1.08;;;;;;;13.92;78.16;101427.44;5065336;28;20052;-84
2021/08/18 03:39:35;;;;;;;4.35;1.67;;;;;;;13.92;78.11;101430.22;5047489;28;20048;-84
2021/08/18 03:42:02;;;;;;;2.35;1.02;;;;;;;13.92;78.21;101426.63;5048558;28;20070;-84
2021/08/18 03:44:29;;;;;;;3.28;1.17;;;;;;;13.88;78.23;101429.28;5048029;28;20060;-84
2021/08/18 03:46:56;;;;;;;4.82;1.15;;;;;;;13.83;78.28;101423.97;5066393;28;20139;-83
2021/08/18 03:49:22;;;;;;;2.75;1.30;;;;;;;13.82;78.37;101425.09;5066902;28;20044;-84
2021/08/18 03:51:50;;;;;;;4.10;1.20;;;;;;;13.80;78.43;101419.09;5065580;28;20066;-83
2021/08/18 03:54:17;;;;;;;3.33;1.25;;;;;;;13.80;78.39;101421.88;5065575;28;20045;-85
2021/08/18 03:56:44;;;;;;;8.35;1.60;;;;;;;13.76;78.95;101423.75;5047603;28;20558;-83
2021/08/18 03:59:11;;;;;;;5.85;2.03;;;;;;;13.77;78.49;101422.56;5048342;28;20044;-84
2021/08/18 04:01:41;;;;;;;4.43;2.20;;;;;;;13.75;78.54;101419.34;5047495;28;20496;-84
2021/08/18 04:04:08;;;;;;;4.68;1.33;;;;;;;13.77;78.47;101408.66;5066760;28;20134;-83
2021/08/18 04:06:34;;;;;;;2.95;1.58;;;;;;;13.79;78.43;101408.31;5066389;28;20040;-84
2021/08/18 04:09:02;;;;;;;1.63;1.08;;;;;;;13.78;78.48;101410.28;5064753;28;20373;-84
2021/08/18 04:11:29;;;;;;;4.68;1.20;;;;;;;13.76;78.60;101407.06;5047386;28;20044;-83
2021/08/18 04:13:56;;;;;;;3.67;1.17;;;;;;;13.74;78.63;101406.56;5065874;28;20051;-84
2021/08/18 04:16:23;;;;;;;2.10;1.70;;;;;;;13.72;78.47;101406.13;5047842;28;20076;-84
2021/08/18 04:18:50;;;;;;;6.65;1.50;;;;;;;13.69;78.74;101403.22;5065847;28;20044;-83
2021/08/18 04:21:17;;;;;;;6.32;1.27;;;;;;;13.72;78.39;101403.34;5065051;28;20037;-85
2021/08/18 04:23:43;;;;;;;5.85;1.55;;;;;;;13.79;78.46;101409.09;5047087;28;20131;-84
2021/08/18 04:26:10;;;;;;;2.85;1.38;;;;;;;13.79;78.44;101399.97;5047158;28;20131;-84
2021/08/18 04:28:37;;;;;;;3.15;1.77;;;;;;;13.76;78.76;101398.69;5065982;28;20622;-83
2021/08/18 04:31:04;;;;;;;2.65;1.20;;;;;;;13.76;78.55;101409.03;5058105;28;20701;-84
2021/08/18 04:33:31;;;;;;;5.60;1.40;;;;;;;13.78;78.63;101401.94;5065603;28;20032;-84
2021/08/18 04:35:57;;;;;;;3.80;1.40;;;;;;;13.82;78.48;101397.28;5030865;28;20052;-83
2021/08/18 04:38:25;;;;;;;5.32;1.80;;;;;;;13.81;78.33;101398.47;5045849;28;20048;-84
2021/08/18 04:40:52;;;;;;;4.75;1.42;;;;;;;13.77;78.50;101389.16;5047244;28;20051;-84
2021/08/18 04:43:19;;;;;;;3.17;0.95;;;;;;;13.78;78.67;101396.38;5045984;28;20041;-83
2021/08/18 04:45:46;;;;;;;3.65;1.88;;;;;;;13.79;78.65;101403.53;5064764;28;20050;-84
2021/08/18 04:48:14;;;;;;;3.45;1.30;;;;;;;13.73;78.77;101409.72;5064673;28;20037;-84
2021/08/18 04:50:40;;;;;;;4.22;1.23;;;;;;;13.70;78.94;101397.31;5025321;28;20397;-83
2021/08/18 04:53:09;;;;;;;5.88;1.83;;;;;;;13.67;79.47;101402.75;5047038;28;20055;-84
2021/08/18 04:55:39;;;;;;;5.18;1.75;;;;;;;13.67;78.87;101400.78;5064996;28;20028;-84
2021/08/18 04:58:06;;;;;;;5.45;1.63;;;;;;;13.63;79.19;101399.88;5047270;28;20038;-83
2021/08/18 05:00:33;;;;;;;2.50;1.45;;;;;;;13.64;79.35;101398.69;5064920;28;20044;-84
2021/08/18 05:03:00;;;;;;;2.95;1.75;;;;;;;13.64;79.05;101401.50;5064653;28;20106;-84
2021/08/18 05:05:27;;;;;;;3.25;1.88;;;;;;;13.63;79.26;101396.28;5064601;28;20052;-84
2021/08/18 05:07:56;;;;;;;3.50;1.80;;;;;;;13.61;79.07;101393.06;5065701;28;20487;-84
2021/08/18 05:10:24;;;;;;;3.63;2.28;;;;;;;13.57;79.12;101395.72;5063774;28;20557;-84
2021/08/18 05:12:51;;;;;;;7.25;3.70;;;;;;;13.53;79.44;101403.13;5063770;28;20411;-84
2021/08/18 05:15:18;;;;;;;9.75;2.20;;;;;;;13.52;79.65;101409.03;5046314;28;20094;-83
2021/08/18 05:17:45;;;;;;;4.65;2.92;;;;;;;13.48;79.57;101406.13;5064168;28;20123;-84
2021/08/18 05:20:14;;;;;;;3.13;2.00;;;;;;;13.49;79.78;101399.44;5064248;28;20135;-84
2021/08/18 05:22:41;;;;;;;4.05;1.90;;;;;;;13.51;79.65;101402.66;5064604;28;20044;-85
2021/08/18 05:25:09;;;;;;;6.13;2.72;;;;;;;13.55;79.82;101395.25;5048435;28;20066;-85
2021/08/18 05:27:36;;;;;;;10.63;3.35;;;;;;;13.54;79.77;101390.03;5063907;28;20420;-83
2021/08/18 05:30:04;;;;;;;8.77;4.60;;;;;;;13.56;79.96;101394.06;5046267;28;20036;-84
2021/08/18 05:32:32;;;;;;;5.75;2.70;;;;;;;13.54;79.77;101385.28;5063347;28;20127;-83
2021/08/18 05:34:59;;;;;;;4.22;2.10;;;;;;;13.56;79.86;101385.72;5064386;28;20044;-84
2021/08/18 05:37:26;;;;;;;6.50;2.00;;;;;;;13.57;79.75;101381.78;5046610;28;20040;-84
2021/08/18 05:39:53;;;;;;;2.97;1.90;;;;;;;13.59;79.70;101379.47;5046038;28;20382;-84
2021/08/18 05:42:20;;;;;;;6.32;2.45;;;;;;;13.58;79.74;101380.63;5028807;28;20053;-83
2021/08/18 05:44:46;;;;;;;5.22;2.22;;;;;;;13.55;79.57;101386.91;5045587;28;20466;-83
2021/08/18 05:47:13;;;;;;;6.32;3.60;;;;;;;13.55;79.82;101381.34;5064240;28;20044;-84
2021/08/18 05:49:41;;;;;;;5.20;2.10;;;;;;;13.49;80.10;101377.16;5046673;28;20068;-84
2021/08/18 05:52:09;;;;;;;5.00;2.55;;;;;;;13.49;80.09;101371.59;5046135;28;20712;-83
2021/08/18 05:54:37;;;;;;;6.07;2.50;;;;;;;13.49;79.87;101377.16;5039982;28;20384;-84
2021/08/18 05:57:05;;;;;;;7.70;2.00;;;;;;;13.52;79.83;101384.00;5064034;28;20135;-84
2021/08/18 05:59:31;;;;;;;5.88;2.83;;;;;;;13.48;80.05;101375.53;5062804;28;20654;-86
2021/08/18 06:01:58;;;;;;;7.57;3.58;;;;;;;13.52;80.14;101379.25;5027960;28;20049;-84
2021/08/18 06:04:26;;;;;;;7.45;3.50;;;;;;;13.54;80.25;101384.47;5045500;28;20044;-84
2021/08/18 06:06:54;;;;;;;11.57;2.78;;;;;;;13.50;80.11;101375.22;5045188;28;20045;-84
2021/08/18 06:09:21;;;;;;;9.60;3.83;;;;;;;13.50;80.34;101378.81;5043385;28;20049;-83
2021/08/18 06:11:48;;;;;;;6.60;3.53;;;;;;;13.48;80.16;101383.88;5043811;28;20055;-84
2021/08/18 06:14:15;;;;;;;9.07;2.85;;;;;;;13.50;80.25;101378.00;5062819;28;20132;-84
2021/08/18 06:16:43;;;;;;;8.65;2.90;;;;;;;13.51;80.37;101385.97;5044508;28;20057;-83
2021/08/18 06:19:14;;;;;;;5.95;3.28;;;;;;;13.52;80.40;101373.69;5063780;28;20041;-84
2021/08/18 06:21:40;;;;;;;8.15;3.20;;;;;;;13.54;80.53;101384.47;5052988;28;20131;-84
2021/08/18 06:24:16;;;;;;;6.50;3.35;;;;;;;13.56;80.42;101382.94;5064238;28;20155;-84
2021/08/18 06:26:43;;;;;;;7.13;3.08;;;;;;;13.56;80.79;101390.47;5045134;28;20040;-84
2021/08/18 06:29:11;;;;;;;8.60;3.47;;;;;;;13.59;80.45;101384.22;5054753;28;20094;-84
2021/08/18 06:31:38;;;;;;;5.88;3.35;;;;;;;13.57;80.60;101384.59;5063633;28;20076;-84
2021/08/18 06:34:05;;;;;;;6.53;3.33;;;;;;;13.61;80.71;101391.06;5044751;28;20046;-84
2021/08/18 06:36:32;;;;;;;8.60;4.20;;;;;;;13.62;80.70;101387.13;5046453;28;20056;-85
2021/08/18 06:38:59;;;;;;;7.35;3.55;;;;;;;13.64;80.56;101372.84;5044240;28;20408;-82
2021/08/18 06:41:27;;;;;;;13.55;4.95;;;;;;;13.66;80.67;101376.13;5046140;28;20909;-84
2021/08/18 06:43:53;;;;;;;9.90;4.40;;;;;;;13.65;80.83;101375.28;5044071;28;20040;-85
2021/08/18 06:46:20;;;;;;;7.85;3.80;;;;;;;13.68;80.80;101380.16;5061739;28;20751;-84
2021/08/18 06:48:47;;;;;;;7.13;3.97;;;;;;;13.73;80.73;101374.34;5044057;28;20632;-84
2021/08/18 06:51:16;;;;;;;12.35;4.53;;;;;;;13.74;80.62;101381.53;5062890;28;20033;-83
2021/08/18 06:53:43;;;;;;;6.70;4.28;;;;;;;13.73;81.08;101379.91;5062000;28;20040;-84
2021/08/18 06:56:11;;;;;;;13.18;5.90;;;;;;;13.70;81.18;101377.84;5061832;28;20041;-83
2021/08/18 06:58:41;;;;;;;8.13;4.00;;;;;;;13.73;81.35;101381.88;5054207;28;20056;-84
2021/08/18 07:01:08;;;;;;;8.00;4.10;;;;;;;13.76;81.33;101370.06;5040602;28;21660;-84
2021/08/18 07:03:35;;;;;;;11.30;4.18;;;;;;;13.81;81.32;101372.59;5061445;28;20042;-84
2021/08/18 07:06:02;;;;;;;9.18;4.32;;;;;;;13.86;81.30;101362.03;5062723;28;20130;-84
2021/08/18 07:08:28;;;;;;;7.40;3.70;;;;;;;13.87;81.24;101360.84;5063623;28;20040;-84
2021/08/18 07:10:55;;;;;;;12.50;4.55;;;;;;;13.91;81.46;101366.53;5062220;28;20086;-84
2021/08/18 07:13:22;;;;;;;8.63;4.25;;;;;;;13.96;81.58;101364.31;5062137;28;20068;-84
2021/08/18 07:15:49;;;;;;;9.40;4.35;;;;;;;14.05;81.57;101378.09;5061428;28;20175;-84
2021/08/18 07:18:23;;;;;;;9.93;4.38;;;;;;;14.06;81.51;101368.56;5062313;28;20041;-84
2021/08/18 07:20:51;;;;;;;6.13;3.63;;;;;;;14.08;81.42;101377.38;5061998;28;20040;-83
2021/08/18 07:23:17;;;;;;;6.15;3.50;;;;;;;14.04;81.34;101370.91;5062656;28;20128;-84
2021/08/18 07:25:45;;;;;;;5.00;3.58;;;;;;;14.06;81.46;101367.78;5044712;28;20044;-84
2021/08/18 07:28:11;;;;;;;7.20;4.60;;;;;;;14.08;81.57;101365.44;5066855;28;20036;-85
2021/08/18 07:30:38;;;;;;;11.48;4.40;;;;;;;14.15;81.58;101360.06;5065834;28;20032;-84
2021/08/18 07:33:05;;;;;;;5.32;3.13;;;;;;;14.18;81.58;101364.94;5047804;28;20049;-84
2021/08/18 07:35:32;;;;;;;7.47;3.60;;;;;;;14.21;81.39;101365.03;5048485;28;20543;-84
2021/08/18 07:37:59;;;;;;;6.10;3.70;;;;;;;14.25;81.31;101370.69;5049250;28;20302;-84
2021/08/18 07:40:26;;;;;;;8.23;3.53;;;;;;;14.26;81.46;101367.56;5066799;28;20044;-85
2021/08/18 07:42:55;;;;;;;5.70;2.72;;;;;;;14.30;81.33;101373.22;5031685;28;20060;-85
2021/08/18 07:45:23;;;;;;;5.63;3.03;;;;;;;14.28;81.69;101375.56;5049439;28;20111;-84
2021/08/18 07:47:51;;;;;;;5.43;3.25;;;;;;;14.28;81.71;101375.56;5063883;28;20063;-84
2021/08/18 07:50:18;;;;;;;5.70;2.92;;;;;;;14.31;81.67;101366.50;5065365;28;20032;-85
2021/08/18 07:52:45;;;;;;;4.97;2.92;;;;;;;14.29;82.13;101371.63;5066289;28;20123;-85
2021/08/18 07:55:11;;;;;;;7.15;2.97;;;;;;;14.31;81.81;101380.41;5046332;28;20033;-85
2021/08/18 07:57:41;;;;;;;4.60;2.40;;;;;;;14.36;81.77;101355.13;5064847;28;20048;-84
2021/08/18 08:00:08;;;;;;;2.72;2.15;;;;;;;14.35;81.89;101354.31;5064256;28;20404;-84
2021/08/18 08:02:35;;;;;;;3.33;2.03;;;;;;;14.35;81.60;101375.81;5063994;28;20479;-84
2021/08/18 08:05:07;;;;;;;2.67;1.83;;;;;;;14.37;81.67;101367.91;5067119;28;20037;-84
2021/08/18 08:07:34;;;;;;;3.80;1.75;;;;;;;14.40;81.65;101367.19;5065285;28;20040;-84
2021/08/18 08:10:00;;;;;;;5.68;1.45;;;;;;;14.48;81.37;101369.00;5047214;28;20136;-86
2021/08/18 08:12:27;;;;;;;1.73;1.45;;;;;;;14.47;81.41;101361.81;5047405;28;20145;-85
2021/08/18 08:14:54;;;;;;;2.90;1.23;;;;;;;14.50;81.27;101361.09;5063935;28;20040;-85
2021/08/18 08:17:25;;;;;;;3.97;1.52;;;;;;;14.61;81.25;101356.63;5065521;28;20040;-84
2021/08/18 08:19:51;;;;;;;3.08;1.40;;;;;;;14.63;81.04;101354.28;5047228;28;20047;-84
2021/08/18 08:22:18;;;;;;;2.35;1.10;;;;;;;14.71;80.89;101360.84;5065131;28;20037;-83
2021/08/18 08:24:45;;;;;;;2.58;1.00;;;;;;;14.75;80.74;101362.56;5046629;28;20512;-84
2021/08/18 08:27:12;;;;;;;2.35;1.10;;;;;;;14.79;80.68;101349.53;5063701;28;20488;-85
2021/08/18 08:29:39;;;;;;;1.70;0.93;;;;;;;14.86;80.58;101352.50;5065617;28;20036;-84
2021/08/18 08:32:06;;;;;;;1.88;0.90;;;;;;;14.93;80.56;101349.88;5033520;28;20163;-85
2021/08/18 08:34:34;;;;;;;3.13;0.80;;;;;;;15.00;80.49;101343.69;5045815;28;20127;-84
2021/08/18 08:37:01;;;;;;;1.00;0.88;;;;;;;15.16;80.25;101339.72;5046394;28;20050;-85
2021/08/18 08:39:27;;;;;;;2.88;1.58;;;;;;;15.37;80.02;101346.97;5046485;28;20052;-84
2021/08/18 08:41:55;;;;;;;0.50;0.50;;;;;;;15.53;79.90;101340.22;5066744;28;20032;-85
2021/08/18 08:44:24;;;;;;;2.10;0.63;;;;;;;15.70;79.40;101344.59;5047994;28;20054;-85
2021/08/18 08:46:52;;;;;;;0.90;0.63;;;;;;;15.80;79.01;101341.22;5065277;28;20051;-83
2021/08/18 08:49:21;;;;;;;0.80;0.52;;;;;;;15.96;78.88;101335.56;5048628;28;20518;-85
2021/08/18 08:51:50;;;;;;;2.22;1.65;;;;;;;16.24;78.83;101336.13;5044420;28;20037;-84
2021/08/18 08:54:18;;;;;;;0.50;0.40;;;;;;;16.68;78.66;101334.59;5048018;28;20190;-85
2021/08/18 08:56:46;;;;;;;0.98;0.50;;;;;;;17.38;78.04;101328.56;5060421;28;20036;-84
2021/08/18 08:59:13;;;;;;;2.13;0.70;;;;;;;18.06;76.77;101334.72;5064958;28;20907;-84
2021/08/18 09:02:03;;;;;;;0.77;0.40;;;;;;;18.27;73.04;101339.78;5047734;28;20480;-86
2021/08/18 09:04:45;;;;;;;0.70;0.43;;;;;;;18.16;70.63;101338.88;5048166;28;20127;-84
2021/08/18 09:07:23;;;;;;;;;;;;;;;17.84;69.56;101338.47;5065329;28;20063;-85
2021/08/18 09:09:52;;;;;;;1.92;0.55;;;;;;;17.64;72.43;101336.97;5066443;28;20438;-87
2021/08/18 09:12:34;;;;;;;1.05;0.63;;;;;;;17.46;72.21;101327.47;5040434;28;20049;-87
2021/08/18 09:15:27;;;;;;;0.70;0.32;;;;;;;17.33;71.00;101331.69;5026895;28;20197;-87
2021/08/18 09:17:54;;;;;;;2.05;0.60;;;;;;;17.23;72.09;101335.94;5021535;28;20057;-86
2021/08/18 09:20:25;;;;;;;0.60;0.60;;;;;;;17.11;71.78;101327.75;5028639;28;20045;-87
2021/08/18 09:23:01;;;;;;;1.85;0.52;;;;;;;17.17;72.03;101319.84;5043807;28;20403;-87
2021/08/18 09:25:38;;;;;;;1.20;0.80;;;;;;;17.23;72.17;101313.56;5026342;28;20048;-87
2021/08/18 09:28:05;;;;;;;1.17;0.70;;;;;;;17.23;72.12;101318.34;5010507;28;20570;-87
2021/08/18 09:30:35;;;;;;;0.50;0.50;;;;;;;17.11;71.98;101327.75;5052531;28;20127;-87
2021/08/18 09:33:12;;;;;;;3.83;0.82;;;;;;;17.01;72.15;101308.81;5046575;28;20045;-89
2021/08/18 09:35:40;;;;;;;0.93;0.40;;;;;;;17.02;72.26;101316.03;5045489;28;20032;-87
2021/08/18 09:38:09;;;;;;;1.70;0.70;;;;;;;16.98;72.32;101303.94;5012031;28;20037;-87
2021/08/18 09:40:39;;;;;;;1.55;0.50;;;;;;;16.99;72.40;101308.38;5045055;28;20037;-87
2021/08/18 09:43:14;;;;;;;2.60;1.10;;;;;;;17.06;72.43;101314.06;5026822;28;20094;-86
2021/08/18 09:45:53;;;;;;;1.25;0.73;;;;;;;17.15;71.88;101295.03;5044570;28;20095;-86
2021/08/18 09:48:24;;;;;;;1.13;0.80;;;;;;;17.14;72.11;101293.41;5027736;28;20057;-87
2021/08/18 09:50:52;;;;;;;1.05;0.70;;;;;;;17.18;72.34;101293.50;5028016;28;20048;-87
2021/08/18 09:53:25;;;;;;;1.83;0.70;;;;;;;17.29;72.14;101295.25;5028571;28;20137;-87
2021/08/18 09:56:15;;;;;;;1.30;0.80;;;;;;;17.31;71.37;101297.69;5028823;28;20121;-88
2021/08/18 09:58:48;;;;;;;0.95;0.65;;;;;;;17.43;71.45;101295.47;5045983;28;20778;-86
2021/08/18 10:01:17;;;;;;;0.95;0.65;;;;;;;17.41;71.30;101292.25;5025500;28;20057;-87
2021/08/18 10:03:48;;;;;;;0.60;0.50;;;;;;;17.40;70.92;101287.81;5045173;28;20083;-87
2021/08/18 10:06:16;;;;;;;0.73;0.70;;;;;;;17.44;70.94;101285.88;5026977;28;20139;-86
2021/08/18 10:08:46;;;;;;;1.20;0.95;;;;;;;17.45;70.65;101281.88;5045725;28;20041;-86
2021/08/18 10:11:16;;;;;;;1.55;0.95;;;;;;;17.51;70.62;101280.38;5029743;28;20036;-87
2021/08/18 10:13:43;;;;;;;1.83;0.98;;;;;;;17.57;70.74;101278.91;5039017;28;20065;-86
2021/08/18 10:16:13;;;;;;;1.30;0.63;;;;;;;17.58;70.85;101280.50;5065316;28;20064;-88
2021/08/18 10:18:49;;;;;;;2.60;0.73;;;;;;;17.52;70.39;101284.81;5047843;28;20040;-86
2021/08/18 10:21:21;;;;;;;2.67;0.75;;;;;;;17.53;70.45;101286.44;5065284;28;20047;-86
2021/08/18 10:23:51;;;;;;;2.38;0.60;;;;;;;17.50;70.37;101281.56;5064599;28;20078;-86
2021/08/18 10:26:34;;;;;;;0.88;0.77;;;;;;;17.47;70.12;101275.91;5047336;28;20060;-87
2021/08/18 10:29:13;;;;;;;0.93;0.68;;;;;;;17.48;70.58;101280.31;5060403;28;20048;-87
2021/08/18 10:31:46;;;;;;;0.85;0.73;;;;;;;17.46;70.38;101277.09;5064489;28;20127;-90
2021/08/18 10:34:26;;;;;;;1.23;0.88;;;;;;;17.39;70.55;101277.81;5047739;28;20495;-89
2021/08/18 10:37:01;;;;;;;1.52;0.88;;;;;;;17.40;70.82;101276.63;5062008;28;20798;-86
2021/08/18 10:39:31;;;;;;;2.70;0.98;;;;;;;17.43;70.70;101272.25;5061988;28;20484;-86
2021/08/18 10:42:00;;;;;;;1.40;1.13;;;;;;;17.41;70.69;101275.44;5046442;28;20036;-89
2021/08/18 10:44:39;;;;;;;1.83;0.80;;;;;;;17.36;70.63;101267.38;5045789;28;20033;-88
2021/08/18 10:47:33;;;;;;;1.40;0.73;;;;;;;17.44;70.79;101269.09;5061176;28;20094;-85
2021/08/18 10:50:23;;;;;;;1.83;1.15;;;;;;;17.52;70.42;101270.81;5035052;28;20396;-86
2021/08/18 10:52:52;;;;;;;1.05;0.65;;;;;;;17.59;70.74;101259.72;5045343;28;20041;-86
2021/08/18 10:55:25;;;;;;;0.70;0.70;;;;;;;17.70;70.45;101270.25;5064958;28;20044;-85
2021/08/18 10:57:52;;;;;;;2.00;0.88;;;;;;;17.78;70.71;101263.53;5064237;28;20135;-86
2021/08/18 11:00:38;;;;;;;2.60;1.02;;;;;;;17.81;69.92;101265.59;5063034;28;20040;-86
2021/08/18 11:03:12;;;;;;;1.58;0.63;;;;;;;17.73;70.20;101263.88;5067458;28;20048;-86
2021/08/18 11:05:49;;;;;;;0.90;0.60;;;;;;;17.71;70.00;101261.47;5066006;28;20476;-86
2021/08/18 11:08:20;;;;;;;1.83;0.50;;;;;;;17.70;70.14;101261.84;5060002;28;20090;-85
2021/08/18 11:11:07;;;;;;;1.30;0.77;;;;;;;17.73;69.99;101256.28;5067404;28;20435;-86
2021/08/18 11:13:46;;;;;;;0.70;0.70;;;;;;;17.79;70.14;101253.97;5030186;28;20048;-86
2021/08/18 11:16:17;;;;;;;1.20;1.10;;;;;;;17.78;70.18;101249.53;5066463;28;20037;-78
2021/08/18 11:18:50;;;;;;;1.00;0.80;;;;;;;17.83;69.85;101254.81;5041670;28;20563;-87
2021/08/18 11:21:23;;;;;;;2.67;0.70;;;;;;;17.87;69.74;101252.88;5048149;28;20119;-86
2021/08/18 11:23:54;;;;;;;1.23;1.05;;;;;;;17.89;69.63;101258.88;5048071;28;20059;-87
2021/08/18 11:26:30;;;;;;;3.40;0.90;;;;;;;17.95;69.41;101237.75;5047867;28;20044;-86
2021/08/18 11:29:07;;;;;;;3.28;0.70;;;;;;;17.90;69.43;101252.88;5065963;28;20480;-86
2021/08/18 11:31:41;;;;;;;0.75;0.70;;;;;;;17.88;69.65;101243.25;5065000;28;20431;-87